createdAt,value
2022-09-20T00:00:27.552Z,12.50
2022-09-20T00:04:10.588Z,12.50
2022-09-20T00:07:52.479Z,12.40
2022-09-20T00:11:35.656Z,12.40
2022-09-20T00:15:17.627Z,12.40
2022-09-20T00:19:02.828Z,12.40
2022-09-20T00:22:44.796Z,12.40
2022-09-20T00:26:28.296Z,12.40
2022-09-20T00:30:10.896Z,12.50
2022-09-20T00:34:15.697Z,12.60
2022-09-20T00:37:58.006Z,12.60
2022-09-20T00:41:40.046Z,12.70
2022-09-20T00:45:27.442Z,12.80
2022-09-20T00:49:23.394Z,12.90
2022-09-20T00:53:20.511Z,12.90
2022-09-20T00:57:02.314Z,12.90
2022-09-20T01:00:45.425Z,13.00
2022-09-20T01:04:28.625Z,13.00
2022-09-20T01:08:11.387Z,13.00
2022-09-20T01:11:55.876Z,13.00
2022-09-20T01:15:40.414Z,13.00
2022-09-20T01:19:31.353Z,13.00
2022-09-20T01:23:22.014Z,13.10
2022-09-20T01:27:09.582Z,13.10
2022-09-20T01:31:12.956Z,13.10
2022-09-20T01:35:00.654Z,13.10
2022-09-20T01:38:52.057Z,13.10
2022-09-20T01:42:38.248Z,13.10
2022-09-20T01:46:31.842Z,13.10
2022-09-20T01:50:37.588Z,13.10
2022-09-20T01:54:38.111Z,13.10
2022-09-20T01:58:35.347Z,13.10
2022-09-20T02:02:25.789Z,13.10
2022-09-20T02:06:25.961Z,13.10
2022-09-20T02:10:26.578Z,13.20
2022-09-20T02:14:27.104Z,13.20
2022-09-20T02:18:36.448Z,13.20
2022-09-20T02:22:42.331Z,13.20
2022-09-20T02:26:58.106Z,13.20
2022-09-20T02:31:11.054Z,13.20
2022-09-20T02:34:55.783Z,13.20
2022-09-20T02:39:00.613Z,13.20
2022-09-20T02:43:02.047Z,13.20
2022-09-20T02:46:57.771Z,13.20
2022-09-20T02:51:13.447Z,13.20
2022-09-20T02:55:26.095Z,13.20
2022-09-20T02:59:25.974Z,13.10
2022-09-20T03:03:24.049Z,13.20
2022-09-20T03:07:20.753Z,13.20
2022-09-20T03:11:25.688Z,13.10
2022-09-20T03:15:16.219Z,13.20
2022-09-20T03:19:24.070Z,13.20
2022-09-20T03:23:27.047Z,13.10
2022-09-20T03:27:17.827Z,13.10
2022-09-20T03:31:02.827Z,13.10
2022-09-20T03:35:08.829Z,13.10
2022-09-20T03:39:30.205Z,13.00
2022-09-20T03:43:33.751Z,12.90
2022-09-20T03:47:53.253Z,12.80
2022-09-20T03:51:59.886Z,12.70
2022-09-20T03:55:56.306Z,12.50
2022-09-20T04:00:01.753Z,12.40
2022-09-20T04:04:17.767Z,12.30
2022-09-20T04:08:17.810Z,12.20
2022-09-20T04:12:05.429Z,12.00
2022-09-20T04:16:22.672Z,11.90
2022-09-20T04:20:20.635Z,11.80
2022-09-20T04:24:24.462Z,11.70
2022-09-20T04:28:21.420Z,11.60
2022-09-20T04:32:20.148Z,11.50
2022-09-20T04:36:32.890Z,11.40
2022-09-20T04:40:21.149Z,11.40
2022-09-20T04:44:37.204Z,11.30
2022-09-20T04:48:46.078Z,11.20
2022-09-20T04:52:49.430Z,11.10
2022-09-20T04:56:49.349Z,11.10
2022-09-20T05:00:54.884Z,11.00
2022-09-20T05:04:55.497Z,10.90
2022-09-20T05:08:59.231Z,10.90
2022-09-20T05:12:41.178Z,10.80
2022-09-20T05:16:46.937Z,10.70
2022-09-20T05:20:44.079Z,10.70
2022-09-20T05:24:40.988Z,10.60
2022-09-20T05:28:49.646Z,10.50
2022-09-20T05:32:57.070Z,10.50
2022-09-20T05:36:41.917Z,10.40
2022-09-20T05:41:14.153Z,10.40
2022-09-20T05:45:04.512Z,10.30
2022-09-20T05:48:57.577Z,10.30
2022-09-20T05:52:59.489Z,10.30
2022-09-20T05:56:55.370Z,10.20
2022-09-20T06:00:46.024Z,10.20
2022-09-20T06:05:12.067Z,10.20
2022-09-20T06:09:22.796Z,10.20
2022-09-20T06:13:21.880Z,10.10
2022-09-20T06:17:27.563Z,10.20
2022-09-20T06:21:46.402Z,10.20
2022-09-20T06:25:48.791Z,10.20
2022-09-20T06:29:35.214Z,10.30
2022-09-20T06:33:22.622Z,10.40
2022-09-20T06:37:32.803Z,10.50
2022-09-20T06:41:28.324Z,10.60
2022-09-20T06:45:10.498Z,10.70
2022-09-20T06:48:52.436Z,10.90
2022-09-20T06:52:35.634Z,11.00
2022-09-20T06:56:22.695Z,11.10
2022-09-20T07:00:06.725Z,11.20
2022-09-20T07:03:48.661Z,11.20
2022-09-20T07:07:30.532Z,11.30
2022-09-20T07:11:16.322Z,11.40
2022-09-20T07:14:58.151Z,11.50
2022-09-20T07:18:41.344Z,11.60
2022-09-20T07:22:23.751Z,11.70
2022-09-20T07:26:06.333Z,11.80
2022-09-20T07:29:48.214Z,11.90
2022-09-20T07:33:31.234Z,12.10
2022-09-20T07:37:14.066Z,12.30
2022-09-20T07:41:00.637Z,12.50
2022-09-20T07:44:43.404Z,12.70
2022-09-20T07:48:36.795Z,12.90
2022-09-20T07:52:19.388Z,13.10
2022-09-20T07:56:05.146Z,13.40
2022-09-20T07:59:47.003Z,13.60
2022-09-20T08:03:33.403Z,13.80
2022-09-20T08:07:15.458Z,14.00
2022-09-20T08:11:06.903Z,14.20
2022-09-20T08:14:49.080Z,14.40
2022-09-20T08:18:31.199Z,14.50
2022-09-20T08:22:13.167Z,14.70
2022-09-20T08:25:57.426Z,14.80
2022-09-20T08:29:40.359Z,15.00
2022-09-20T08:33:22.192Z,15.30
2022-09-20T08:37:04.676Z,15.40
2022-09-20T08:40:49.381Z,15.70
2022-09-20T08:44:45.391Z,15.80
2022-09-20T08:48:38.264Z,16.00
2022-09-20T08:52:36.959Z,16.20
2022-09-20T08:56:20.434Z,16.40
2022-09-20T09:00:05.030Z,16.70
2022-09-20T09:03:47.576Z,17.40
2022-09-20T09:07:29.758Z,18.00
2022-09-20T09:11:15.341Z,18.20
2022-09-20T09:15:17.701Z,18.40
2022-09-20T09:19:33.620Z,18.60
2022-09-20T09:23:27.472Z,18.80
2022-09-20T09:27:19.884Z,19.10
2022-09-20T09:31:34.289Z,19.40
2022-09-20T09:35:26.845Z,19.70
2022-09-20T09:39:22.476Z,20.20
2022-09-20T09:43:04.391Z,21.10
2022-09-20T09:46:46.516Z,21.90
2022-09-20T09:50:31.749Z,22.20
2022-09-20T09:54:18.218Z,22.70
2022-09-20T09:58:24.377Z,23.50
2022-09-20T10:02:13.160Z,23.60
2022-09-20T10:06:18.595Z,23.40
2022-09-20T10:10:16.631Z,23.00
2022-09-20T10:14:23.358Z,22.60
2022-09-20T10:18:17.352Z,22.40
2022-09-20T10:22:05.233Z,22.20
2022-09-20T10:26:02.530Z,22.40
2022-09-20T10:30:23.322Z,22.70
2022-09-20T10:34:27.112Z,22.90
2022-09-20T10:38:23.468Z,23.00
2022-09-20T10:42:34.704Z,23.00
2022-09-20T10:46:34.361Z,23.00
2022-09-20T10:50:38.353Z,23.10
2022-09-20T10:54:23.295Z,23.30
2022-09-20T10:58:13.818Z,23.40
2022-09-20T11:02:37.101Z,23.60
2022-09-20T11:06:52.011Z,24.10
2022-09-20T11:10:43.069Z,25.00
2022-09-20T11:14:42.272Z,25.80
2022-09-20T11:18:33.547Z,26.10
2022-09-20T11:22:24.132Z,26.10
2022-09-20T11:26:11.831Z,26.10
2022-09-20T11:30:05.321Z,26.00
2022-09-20T11:34:09.320Z,25.90
2022-09-20T11:38:01.841Z,25.80
2022-09-20T11:41:44.930Z,26.10
2022-09-20T11:45:28.897Z,26.90
2022-09-20T11:49:49.734Z,27.60
2022-09-20T11:53:50.274Z,28.00
2022-09-20T11:57:32.491Z,28.60
2022-09-20T12:01:16.972Z,29.60
2022-09-20T12:04:59.271Z,30.70
2022-09-20T12:08:42.199Z,31.40
2022-09-20T12:12:39.294Z,31.30
2022-09-20T12:16:57.117Z,31.00
2022-09-20T12:20:39.018Z,30.30
2022-09-20T12:24:22.517Z,29.60
2022-09-20T12:28:05.356Z,28.60
2022-09-20T12:31:55.055Z,27.80
2022-09-20T12:35:37.266Z,27.10
2022-09-20T12:39:30.018Z,26.80
2022-09-20T12:43:23.040Z,26.70
2022-09-20T12:47:05.098Z,26.80
2022-09-20T12:51:44.514Z,27.10
2022-09-20T12:55:27.826Z,27.50
2022-09-20T12:59:27.720Z,28.60
2022-09-20T13:03:21.535Z,29.60
2022-09-20T13:07:45.317Z,30.10
2022-09-20T13:11:42.157Z,30.60
2022-09-20T13:15:24.238Z,31.20
2022-09-20T13:19:46.688Z,31.10
2022-09-20T13:23:32.181Z,30.40
2022-09-20T13:27:27.587Z,29.40
2022-09-20T13:31:21.414Z,29.10
2022-09-20T13:35:24.067Z,29.80
2022-09-20T13:39:07.813Z,30.90
2022-09-20T13:42:52.389Z,31.40
2022-09-20T13:46:42.891Z,31.40
2022-09-20T13:50:35.572Z,30.80
2022-09-20T13:54:29.379Z,29.90
2022-09-20T13:58:34.612Z,29.20
2022-09-20T14:02:26.817Z,28.50
2022-09-20T14:06:14.219Z,28.10
2022-09-20T14:09:56.898Z,28.30
2022-09-20T14:13:42.945Z,28.10
2022-09-20T14:17:25.664Z,27.70
2022-09-20T14:21:09.435Z,27.30
2022-09-20T14:25:00.204Z,27.60
2022-09-20T14:28:44.997Z,28.10
2022-09-20T14:32:52.355Z,27.90
2022-09-20T14:36:34.270Z,27.40
2022-09-20T14:40:26.769Z,27.00
2022-09-20T14:44:30.626Z,26.50
2022-09-20T14:48:12.441Z,26.10
2022-09-20T14:52:14.767Z,25.70
2022-09-20T14:55:58.355Z,25.40
2022-09-20T14:59:43.467Z,25.10
2022-09-20T15:03:42.227Z,24.90
2022-09-20T15:07:24.080Z,24.60
2022-09-20T15:11:06.145Z,24.30
2022-09-20T15:14:48.685Z,24.10
2022-09-20T15:18:42.727Z,23.80
2022-09-20T15:22:24.585Z,23.50
2022-09-20T15:26:07.600Z,23.30
2022-09-20T15:29:49.452Z,23.10
2022-09-20T15:33:32.569Z,22.90
2022-09-20T15:37:17.164Z,22.80
2022-09-20T15:41:03.407Z,22.60
2022-09-20T15:44:45.274Z,22.50
2022-09-20T15:48:29.938Z,22.40
2022-09-20T15:52:13.127Z,22.30
2022-09-20T15:55:55.000Z,22.30
2022-09-20T15:59:36.841Z,22.20
2022-09-20T16:03:18.762Z,22.10
2022-09-20T16:07:00.864Z,22.00
2022-09-20T16:10:42.704Z,21.90
2022-09-20T16:14:25.223Z,21.80
2022-09-20T16:18:26.711Z,21.70
2022-09-20T16:22:09.055Z,21.60
2022-09-20T16:25:52.651Z,21.60
2022-09-20T16:29:34.977Z,21.60
2022-09-20T16:33:16.854Z,21.60
2022-09-20T16:37:15.869Z,21.50
2022-09-20T16:40:58.125Z,21.50
2022-09-20T16:44:42.722Z,21.40
2022-09-20T16:48:30.351Z,21.30
2022-09-20T16:52:12.237Z,21.20
2022-09-20T16:55:57.687Z,21.20
2022-09-20T16:59:39.529Z,21.00
2022-09-20T17:03:23.417Z,20.90
2022-09-20T17:07:05.416Z,20.80
2022-09-20T17:10:48.773Z,20.70
2022-09-20T17:14:30.659Z,20.70
2022-09-20T17:18:15.728Z,20.60
2022-09-20T17:21:57.695Z,20.60
2022-09-20T17:25:41.979Z,20.60
2022-09-20T17:29:23.831Z,20.60
2022-09-20T17:33:07.117Z,20.60
2022-09-20T17:36:49.323Z,20.50
2022-09-20T17:40:31.437Z,20.40
2022-09-20T17:44:14.232Z,20.30
2022-09-20T17:47:57.557Z,20.20
2022-09-20T17:51:44.786Z,20.10
2022-09-20T17:55:28.356Z,20.00
2022-09-20T17:59:12.092Z,19.90
2022-09-20T18:02:53.964Z,19.80
2022-09-20T18:06:44.669Z,19.70
2022-09-20T18:10:28.910Z,19.60
2022-09-20T18:14:11.089Z,19.50
2022-09-20T18:17:54.608Z,19.40
2022-09-20T18:21:38.838Z,19.30
2022-09-20T18:25:21.145Z,19.10
2022-09-20T18:29:12.369Z,19.00
2022-09-20T18:32:54.466Z,18.80
2022-09-20T18:36:39.645Z,18.70
2022-09-20T18:40:23.320Z,18.60
2022-09-20T18:44:07.667Z,18.40
2022-09-20T18:47:50.389Z,18.30
2022-09-20T18:51:37.150Z,18.30
2022-09-20T18:55:24.464Z,18.10
2022-09-20T18:59:12.987Z,18.00
2022-09-20T19:03:10.112Z,17.90
2022-09-20T19:07:18.066Z,17.80
2022-09-20T19:11:07.894Z,17.70
2022-09-20T19:15:29.808Z,17.50
2022-09-20T19:19:44.336Z,17.40
2022-09-20T19:23:44.880Z,17.20
2022-09-20T19:27:27.326Z,17.10
2022-09-20T19:31:20.805Z,16.90
2022-09-20T19:35:03.942Z,16.80
2022-09-20T19:39:02.575Z,16.70
2022-09-20T19:43:10.867Z,16.60
2022-09-20T19:47:10.415Z,16.40
2022-09-20T19:50:53.611Z,16.30
2022-09-20T19:54:36.577Z,16.20
2022-09-20T19:58:19.368Z,16.00
2022-09-20T20:02:01.673Z,15.90
2022-09-20T20:05:54.869Z,15.70
2022-09-20T20:09:41.598Z,15.60
2022-09-20T20:13:52.687Z,15.50
2022-09-20T20:17:59.293Z,15.40
2022-09-20T20:22:01.809Z,15.20
2022-09-20T20:26:05.880Z,15.00
2022-09-20T20:29:48.020Z,14.90
2022-09-20T20:33:30.962Z,14.80
2022-09-20T20:37:13.352Z,14.70
2022-09-20T20:41:04.735Z,14.60
2022-09-20T20:44:47.857Z,14.50
2022-09-20T20:48:30.333Z,14.40
2022-09-20T20:52:12.228Z,14.30
2022-09-20T20:56:01.000Z,14.20
2022-09-20T20:59:42.857Z,14.10
2022-09-20T21:03:24.714Z,14.00
2022-09-20T21:07:06.559Z,13.90
2022-09-20T21:10:48.407Z,13.80
2022-09-20T21:14:31.952Z,13.70
2022-09-20T21:18:14.913Z,13.60
2022-09-20T21:21:56.808Z,13.60
2022-09-20T21:25:38.686Z,13.50
2022-09-20T21:29:20.695Z,13.40
2022-09-20T21:33:03.338Z,13.30
2022-09-20T21:36:45.239Z,13.30
2022-09-20T21:40:27.110Z,13.20
2022-09-20T21:44:12.246Z,13.20
2022-09-20T21:47:54.431Z,13.20
2022-09-20T21:51:37.327Z,13.10
2022-09-20T21:55:19.167Z,13.10
2022-09-20T21:59:03.757Z,13.10
2022-09-20T22:02:46.312Z,13.10
2022-09-20T22:06:33.564Z,13.10
2022-09-20T22:10:15.474Z,13.10
2022-09-20T22:13:58.021Z,13.10
2022-09-20T22:17:40.172Z,13.10
2022-09-20T22:21:26.808Z,13.10
2022-09-20T22:25:08.981Z,13.10
2022-09-20T22:28:51.787Z,13.10
2022-09-20T22:32:33.709Z,13.10
2022-09-20T22:36:18.176Z,13.10
2022-09-20T22:40:00.112Z,13.00
2022-09-20T22:43:42.075Z,13.00
2022-09-20T22:47:23.955Z,13.00
2022-09-20T22:51:11.814Z,13.00
2022-09-20T22:54:53.643Z,13.00
2022-09-20T22:58:38.497Z,12.90
2022-09-20T23:02:20.316Z,12.90
2022-09-20T23:06:03.153Z,12.90
2022-09-20T23:09:45.977Z,13.00
2022-09-20T23:13:27.929Z,13.00
2022-09-20T23:17:09.763Z,13.00
2022-09-20T23:21:01.975Z,13.10
2022-09-20T23:24:44.549Z,13.10
2022-09-20T23:28:26.735Z,13.10
2022-09-20T23:32:08.585Z,13.20
2022-09-20T23:35:51.653Z,13.20
2022-09-20T23:39:33.535Z,13.30
2022-09-20T23:43:15.417Z,13.30
2022-09-20T23:46:57.257Z,13.40
2022-09-20T23:50:39.115Z,13.40
2022-09-20T23:54:21.027Z,13.40
2022-09-20T23:58:02.890Z,13.50
